createdAt,value
2023-01-12T00:00:05.432Z,0.00
2023-01-12T00:01:05.552Z,0.00
2023-01-12T00:02:07.552Z,0.00
2023-01-12T00:03:05.891Z,0.00
2023-01-12T00:04:06.135Z,0.00
2023-01-12T00:05:06.225Z,0.00
2023-01-12T00:06:06.426Z,0.00
2023-01-12T00:07:06.574Z,0.00
2023-01-12T00:08:06.744Z,0.00
2023-01-12T00:09:06.942Z,0.00
2023-01-12T00:10:07.103Z,0.00
2023-01-12T00:11:07.280Z,0.00
2023-01-12T00:12:07.430Z,0.00
2023-01-12T00:13:07.620Z,0.00
2023-01-12T00:14:07.803Z,0.00
2023-01-12T00:15:07.988Z,0.00
2023-01-12T00:16:08.196Z,0.00
2023-01-12T00:17:08.341Z,0.00
2023-01-12T00:18:08.499Z,0.00
2023-01-12T00:19:08.671Z,0.00
2023-01-12T00:20:08.829Z,0.00
2023-01-12T00:21:09.039Z,0.00
2023-01-12T00:22:09.191Z,0.00
2023-01-12T00:23:09.387Z,0.00
2023-01-12T00:24:09.540Z,0.00
2023-01-12T00:25:09.713Z,0.00
2023-01-12T00:26:09.897Z,0.00
2023-01-12T00:27:10.067Z,0.00
2023-01-12T00:28:10.220Z,0.00
2023-01-12T00:29:10.390Z,0.00
2023-01-12T00:30:10.546Z,0.00
2023-01-12T00:31:10.755Z,0.00
2023-01-12T00:32:10.883Z,0.00
2023-01-12T00:33:11.068Z,0.00
2023-01-12T00:34:11.259Z,0.00
2023-01-12T00:35:11.460Z,0.00
2023-01-12T00:36:11.629Z,0.00
2023-01-12T00:37:11.770Z,0.00
2023-01-12T00:38:11.928Z,0.00
2023-01-12T00:39:12.103Z,0.00
2023-01-12T00:40:12.251Z,0.00
2023-01-12T00:41:12.449Z,0.00
2023-01-12T00:42:12.615Z,0.00
2023-01-12T00:43:12.777Z,0.00
2023-01-12T00:44:12.928Z,0.00
2023-01-12T00:45:13.122Z,0.00
2023-01-12T00:46:13.354Z,0.00
2023-01-12T00:47:13.473Z,0.00
2023-01-12T00:48:13.639Z,0.00
2023-01-12T00:49:13.826Z,0.00
2023-01-12T00:50:13.999Z,0.00
2023-01-12T00:51:14.207Z,0.00
2023-01-12T00:52:24.882Z,0.00
2023-01-12T00:53:15.517Z,0.00
2023-01-12T00:54:14.679Z,0.00
2023-01-12T00:55:14.878Z,0.00
2023-01-12T00:56:15.028Z,0.00
2023-01-12T00:57:15.222Z,0.00
2023-01-12T00:58:15.376Z,0.00
2023-01-12T00:59:15.547Z,0.00
2023-01-12T01:00:15.727Z,0.00
2023-01-12T01:01:16.024Z,0.00
2023-01-12T01:02:16.189Z,0.00
2023-01-12T01:03:16.257Z,0.00
2023-01-12T01:04:16.422Z,0.00
2023-01-12T01:05:16.607Z,0.00
2023-01-12T01:06:16.784Z,0.00
2023-01-12T01:07:16.944Z,0.00
2023-01-12T01:08:17.126Z,0.00
2023-01-12T01:09:17.282Z,0.00
2023-01-12T01:10:17.448Z,0.00
2023-01-12T01:11:17.645Z,0.00
2023-01-12T01:12:17.807Z,0.00
2023-01-12T01:13:17.966Z,0.00
2023-01-12T01:14:18.136Z,0.00
2023-01-12T01:15:18.335Z,0.00
2023-01-12T01:16:18.590Z,0.00
2023-01-12T01:17:18.689Z,0.00
2023-01-12T01:18:18.837Z,0.00
2023-01-12T01:19:19.026Z,0.00
2023-01-12T01:20:19.205Z,0.00
2023-01-12T01:21:19.388Z,0.00
2023-01-12T01:22:19.538Z,0.00
2023-01-12T01:23:19.724Z,0.00
2023-01-12T01:24:19.895Z,0.00
2023-01-12T01:25:20.054Z,0.00
2023-01-12T01:26:20.257Z,0.00
2023-01-12T01:27:20.388Z,0.00
2023-01-12T01:28:20.539Z,0.00
2023-01-12T01:29:20.754Z,0.00
2023-01-12T01:30:20.895Z,0.00
2023-01-12T01:31:21.143Z,0.00
2023-01-12T01:32:21.288Z,0.00
2023-01-12T01:33:21.445Z,0.00
2023-01-12T01:34:21.596Z,0.00
2023-01-12T01:35:21.757Z,0.00
2023-01-12T01:36:21.913Z,0.00
2023-01-12T01:37:22.102Z,0.00
2023-01-12T01:38:22.262Z,0.00
2023-01-12T01:39:22.433Z,0.00
2023-01-12T01:40:22.592Z,0.00
2023-01-12T01:41:22.776Z,0.00
2023-01-12T01:42:22.945Z,0.00
2023-01-12T01:43:23.115Z,0.00
2023-01-12T01:44:23.272Z,0.00
2023-01-12T01:45:23.436Z,0.00
2023-01-12T01:46:23.628Z,0.00
2023-01-12T01:47:23.788Z,0.00
2023-01-12T01:48:23.944Z,0.00
2023-01-12T01:49:24.116Z,0.00
2023-01-12T01:50:24.264Z,0.00
2023-01-12T01:51:24.432Z,0.00
2023-01-12T01:52:24.614Z,0.00
2023-01-12T01:53:24.793Z,0.00
2023-01-12T01:54:24.969Z,0.00
2023-01-12T01:55:25.124Z,0.00
2023-01-12T01:56:25.274Z,0.00
2023-01-12T01:57:25.464Z,0.00
2023-01-12T01:58:25.625Z,0.00
2023-01-12T01:59:25.858Z,0.00
2023-01-12T02:00:25.989Z,0.00
2023-01-12T02:01:26.244Z,0.00
2023-01-12T02:02:26.365Z,0.00
2023-01-12T02:03:26.482Z,0.00
2023-01-12T02:04:26.644Z,0.00
2023-01-12T02:05:26.847Z,0.00
2023-01-12T02:06:26.997Z,0.00
2023-01-12T02:07:27.184Z,0.00
2023-01-12T02:08:27.335Z,0.00
2023-01-12T02:09:27.513Z,0.00
2023-01-12T02:10:27.672Z,0.00
2023-01-12T02:11:27.862Z,0.00
2023-01-12T02:12:28.021Z,0.00
2023-01-12T02:13:28.192Z,0.00
2023-01-12T02:14:28.361Z,0.00
2023-01-12T02:15:28.511Z,0.00
2023-01-12T02:16:28.685Z,0.00
2023-01-12T02:17:28.861Z,0.00
2023-01-12T02:18:29.024Z,0.00
2023-01-12T02:19:29.184Z,0.00
2023-01-12T02:20:29.339Z,0.00
2023-01-12T02:21:29.505Z,0.00
2023-01-12T02:22:29.681Z,0.00
2023-01-12T02:23:29.852Z,0.00
2023-01-12T02:24:30.020Z,0.00
2023-01-12T02:25:30.187Z,0.00
2023-01-12T02:26:30.341Z,0.00
2023-01-12T02:27:30.536Z,0.00
2023-01-12T02:28:30.689Z,0.00
2023-01-12T02:29:30.856Z,0.00
2023-01-12T02:30:31.010Z,0.00
2023-01-12T02:31:31.225Z,0.00
2023-01-12T02:32:31.351Z,0.00
2023-01-12T02:33:31.528Z,0.00
2023-01-12T02:34:31.680Z,0.00
2023-01-12T02:35:31.891Z,0.00
2023-01-12T02:36:32.060Z,0.00
2023-01-12T02:37:32.231Z,0.00
2023-01-12T02:38:32.410Z,0.00
2023-01-12T02:39:32.575Z,0.00
2023-01-12T02:40:32.732Z,0.00
2023-01-12T02:41:32.908Z,0.00
2023-01-12T02:42:33.061Z,0.00
2023-01-12T02:43:33.232Z,0.00
2023-01-12T02:44:33.400Z,0.00
2023-01-12T02:45:33.560Z,0.00
2023-01-12T02:46:33.739Z,0.00
2023-01-12T02:47:33.910Z,0.00
2023-01-12T02:48:34.095Z,0.00
2023-01-12T02:49:34.249Z,0.00
2023-01-12T02:50:34.412Z,0.00
2023-01-12T02:51:34.578Z,0.00
2023-01-12T02:52:34.767Z,0.00
2023-01-12T02:53:34.923Z,0.00
2023-01-12T02:54:35.088Z,0.00
2023-01-12T02:55:35.271Z,0.00
2023-01-12T02:56:35.396Z,0.00
2023-01-12T02:57:35.569Z,0.00
2023-01-12T02:58:35.736Z,0.00
2023-01-12T02:59:35.915Z,0.00
2023-01-12T03:00:36.105Z,0.00
2023-01-12T03:01:36.271Z,0.00
2023-01-12T03:02:36.448Z,0.00
2023-01-12T03:03:36.579Z,0.00
2023-01-12T03:04:36.748Z,0.00
2023-01-12T03:05:36.909Z,0.00
2023-01-12T03:06:37.079Z,0.00
2023-01-12T03:07:37.255Z,0.00
2023-01-12T03:08:37.417Z,0.00
2023-01-12T03:09:37.596Z,0.00
2023-01-12T03:10:37.749Z,0.00
2023-01-12T03:11:37.903Z,0.00
2023-01-12T03:12:38.079Z,0.00
2023-01-12T03:13:38.254Z,0.00
2023-01-12T03:14:38.412Z,0.00
2023-01-12T03:15:38.585Z,0.00
2023-01-12T03:16:38.743Z,0.00
2023-01-12T03:17:38.931Z,0.00
2023-01-12T03:18:39.091Z,0.00
2023-01-12T03:19:39.249Z,0.00
2023-01-12T03:20:39.410Z,0.00
2023-01-12T03:21:39.577Z,0.00
2023-01-12T03:22:39.786Z,0.00
2023-01-12T03:23:39.932Z,0.00
2023-01-12T03:24:40.096Z,0.00
2023-01-12T03:25:40.267Z,0.00
2023-01-12T03:26:40.428Z,0.00
2023-01-12T03:27:40.618Z,0.00
2023-01-12T03:28:40.778Z,0.00
2023-01-12T03:29:40.945Z,0.00
2023-01-12T03:30:41.090Z,0.00
2023-01-12T03:31:41.312Z,0.00
2023-01-12T03:32:41.424Z,0.00
2023-01-12T03:33:41.614Z,0.00
2023-01-12T03:34:41.769Z,0.00
2023-01-12T03:35:41.942Z,0.00
2023-01-12T03:36:42.080Z,0.00
2023-01-12T03:37:42.247Z,0.00
2023-01-12T03:38:42.426Z,0.00
2023-01-12T03:39:42.596Z,0.00
2023-01-12T03:40:42.746Z,0.00
2023-01-12T03:41:42.916Z,0.00
2023-01-12T03:42:43.099Z,0.00
2023-01-12T03:43:43.271Z,0.00
2023-01-12T03:44:43.431Z,0.00
2023-01-12T03:45:43.601Z,0.00
2023-01-12T03:46:43.827Z,0.00
2023-01-12T03:47:43.949Z,0.00
2023-01-12T03:48:44.107Z,0.00
2023-01-12T03:49:44.267Z,0.00
2023-01-12T03:50:44.435Z,0.00
2023-01-12T03:51:44.607Z,0.00
2023-01-12T03:52:44.786Z,0.00
2023-01-12T03:53:44.949Z,0.00
2023-01-12T03:54:45.105Z,0.00
2023-01-12T03:55:45.265Z,0.00
2023-01-12T03:56:45.474Z,0.00
2023-01-12T03:57:45.602Z,0.00
2023-01-12T03:58:45.756Z,0.00
2023-01-12T03:59:45.925Z,0.00
2023-01-12T04:00:46.144Z,0.00
2023-01-12T04:01:46.380Z,0.00
2023-01-12T04:02:46.447Z,0.00
2023-01-12T04:03:46.627Z,0.00
2023-01-12T04:04:46.784Z,0.00
2023-01-12T04:05:46.954Z,0.00
2023-01-12T04:06:47.114Z,0.00
2023-01-12T04:07:47.263Z,0.00
2023-01-12T04:08:47.435Z,0.00
2023-01-12T04:09:47.599Z,0.00
2023-01-12T04:10:47.797Z,0.00
2023-01-12T04:11:47.964Z,0.00
2023-01-12T04:12:48.146Z,0.00
2023-01-12T04:13:48.325Z,0.00
2023-01-12T04:14:48.487Z,0.00
2023-01-12T04:15:48.659Z,0.00
2023-01-12T04:16:48.825Z,0.00
2023-01-12T04:17:48.977Z,0.00
2023-01-12T04:18:49.199Z,0.00
2023-01-12T04:19:49.355Z,0.00
2023-01-12T04:20:49.539Z,0.00
2023-01-12T04:21:49.705Z,0.00
2023-01-12T04:22:49.875Z,0.00
2023-01-12T04:23:50.037Z,0.00
2023-01-12T04:24:50.196Z,0.00
2023-01-12T04:25:50.419Z,0.00
2023-01-12T04:26:50.557Z,0.00
2023-01-12T04:27:50.715Z,0.00
2023-01-12T04:28:50.885Z,0.00
2023-01-12T04:29:51.044Z,0.00
2023-01-12T04:30:51.255Z,0.00
2023-01-12T04:31:51.435Z,0.00
2023-01-12T04:32:51.565Z,0.00
2023-01-12T04:33:51.715Z,0.00
2023-01-12T04:34:51.878Z,0.00
2023-01-12T04:35:52.052Z,0.00
2023-01-12T04:36:52.213Z,0.00
2023-01-12T04:37:52.388Z,0.00
2023-01-12T04:38:52.577Z,0.00
2023-01-12T04:39:52.731Z,0.00
2023-01-12T04:40:52.913Z,0.00
2023-01-12T04:41:53.064Z,0.00
2023-01-12T04:42:53.239Z,0.00
2023-01-12T04:43:53.409Z,0.00
2023-01-12T04:44:53.575Z,0.00
2023-01-12T04:45:53.741Z,0.00
2023-01-12T04:46:53.911Z,0.00
2023-01-12T04:47:54.077Z,0.00
2023-01-12T04:48:54.245Z,0.00
2023-01-12T04:49:54.395Z,0.00
2023-01-12T04:50:54.594Z,0.00
2023-01-12T04:51:54.740Z,0.00
2023-01-12T04:52:54.910Z,0.00
2023-01-12T04:53:55.103Z,0.00
2023-01-12T04:54:56.871Z,0.00
2023-01-12T04:55:55.415Z,0.00
2023-01-12T04:56:55.581Z,0.00
2023-01-12T04:57:55.743Z,0.00
2023-01-12T04:58:55.918Z,0.00
2023-01-12T04:59:56.073Z,0.00
2023-01-12T05:00:56.326Z,0.00
2023-01-12T05:01:56.458Z,0.00
2023-01-12T05:02:56.592Z,0.00
2023-01-12T05:03:56.821Z,0.00
2023-01-12T05:04:56.952Z,0.00
2023-01-12T05:05:57.136Z,0.00
2023-01-12T05:06:57.292Z,0.00
2023-01-12T05:07:57.452Z,0.00
2023-01-12T05:08:57.638Z,0.00
2023-01-12T05:09:57.784Z,0.00
2023-01-12T05:10:57.962Z,0.00
2023-01-12T05:11:58.126Z,0.00
2023-01-12T05:12:58.282Z,0.00
2023-01-12T05:13:58.473Z,0.00
2023-01-12T05:14:58.631Z,0.00
2023-01-12T05:15:58.792Z,0.00
2023-01-12T05:16:59.007Z,0.00
2023-01-12T05:17:59.132Z,0.00
2023-01-12T05:18:59.316Z,0.00
2023-01-12T05:20:00.922Z,0.00
2023-01-12T05:20:59.658Z,0.00
2023-01-12T05:21:59.826Z,0.00
2023-01-12T05:22:59.989Z,0.00
2023-01-12T05:24:00.141Z,0.00
2023-01-12T05:25:00.311Z,0.00
2023-01-12T05:26:00.485Z,0.00
2023-01-12T05:27:00.664Z,0.00
2023-01-12T05:28:00.816Z,0.00
2023-01-12T05:29:00.970Z,0.00
2023-01-12T05:30:01.130Z,0.00
2023-01-12T05:31:01.342Z,0.00
2023-01-12T05:32:01.463Z,0.00
2023-01-12T05:33:01.630Z,0.00
2023-01-12T05:34:01.790Z,0.00
2023-01-12T05:35:01.950Z,0.00
2023-01-12T05:36:02.132Z,0.00
2023-01-12T05:37:02.302Z,0.00
2023-01-12T05:38:02.460Z,0.00
2023-01-12T05:39:02.633Z,0.00
2023-01-12T05:40:02.792Z,0.00
2023-01-12T05:41:02.984Z,0.00
2023-01-12T05:42:03.119Z,0.00
2023-01-12T05:43:03.320Z,0.00
2023-01-12T05:44:03.513Z,0.00
2023-01-12T05:45:03.671Z,0.00
2023-01-12T05:46:03.873Z,0.00
2023-01-12T05:47:04.009Z,0.00
2023-01-12T05:48:04.180Z,0.00
2023-01-12T05:49:04.352Z,0.00
2023-01-12T05:50:04.487Z,0.00
2023-01-12T05:51:04.656Z,0.00
2023-01-12T05:52:04.836Z,0.00
2023-01-12T05:53:04.998Z,0.00
2023-01-12T05:54:05.160Z,0.00
2023-01-12T05:55:05.320Z,0.00
2023-01-12T05:56:05.489Z,0.00
2023-01-12T05:57:05.649Z,0.00
2023-01-12T05:58:05.811Z,0.00
2023-01-12T05:59:06.019Z,0.00
2023-01-12T06:00:06.186Z,0.00
2023-01-12T06:01:06.399Z,0.00
2023-01-12T06:02:06.528Z,0.00
2023-01-12T06:03:06.681Z,0.00
2023-01-12T06:04:06.857Z,0.00
2023-01-12T06:05:07.020Z,0.00
2023-01-12T06:06:07.181Z,0.00
2023-01-12T06:07:07.351Z,0.00
2023-01-12T06:08:07.512Z,0.00
2023-01-12T06:09:07.689Z,0.00
2023-01-12T06:10:07.855Z,0.00
2023-01-12T06:11:08.032Z,0.00
2023-01-12T06:12:08.197Z,0.00
2023-01-12T06:13:08.360Z,0.00
2023-01-12T06:14:08.514Z,0.00
2023-01-12T06:15:08.709Z,0.00
2023-01-12T06:16:09.018Z,0.00
2023-01-12T06:17:09.074Z,0.00
2023-01-12T06:18:09.229Z,0.00
2023-01-12T06:19:11.118Z,0.00
2023-01-12T06:20:09.573Z,0.00
2023-01-12T06:21:09.738Z,0.00
2023-01-12T06:22:09.898Z,0.00
2023-01-12T06:23:10.071Z,0.00
2023-01-12T06:24:10.231Z,0.00
2023-01-12T06:25:10.393Z,0.00
2023-01-12T06:26:10.776Z,0.00
2023-01-12T06:27:10.737Z,0.00
2023-01-12T06:28:10.898Z,0.00
2023-01-12T06:29:11.088Z,0.00
2023-01-12T06:30:11.241Z,0.00
2023-01-12T06:31:11.454Z,0.00
2023-01-12T06:32:11.588Z,0.00
2023-01-12T06:33:11.760Z,0.00
2023-01-12T06:34:11.956Z,0.00
2023-01-12T06:35:19.206Z,0.00
2023-01-12T06:36:13.304Z,0.00
2023-01-12T06:37:12.480Z,0.00
2023-01-12T06:38:12.602Z,0.00
2023-01-12T06:39:12.797Z,0.00
2023-01-12T06:40:12.974Z,0.00
2023-01-12T06:41:13.133Z,4.00
2023-01-12T06:42:13.278Z,4.00
2023-01-12T06:43:13.448Z,0.00
2023-01-12T06:44:13.662Z,4.00
2023-01-12T06:45:13.807Z,4.00
2023-01-12T06:46:14.054Z,4.00
2023-01-12T06:47:14.167Z,8.00
2023-01-12T06:48:14.399Z,8.00
2023-01-12T06:49:14.528Z,12.00
2023-01-12T06:50:14.689Z,12.00
2023-01-12T06:51:14.905Z,12.00
2023-01-12T06:52:15.053Z,16.00
2023-01-12T06:53:15.246Z,16.00
2023-01-12T06:54:17.744Z,20.00
2023-01-12T06:55:15.620Z,20.00
2023-01-12T06:56:15.768Z,28.00
2023-01-12T06:57:15.952Z,32.00
2023-01-12T06:58:16.141Z,32.00
2023-01-12T06:59:16.345Z,36.00
2023-01-12T07:00:16.576Z,36.00
2023-01-12T07:01:16.831Z,40.00
2023-01-12T07:02:16.900Z,44.00
2023-01-12T07:03:17.048Z,48.00
2023-01-12T07:04:17.282Z,52.00
2023-01-12T07:05:17.392Z,56.00
2023-01-12T07:06:17.583Z,60.00
2023-01-12T07:07:17.772Z,72.00
2023-01-12T07:08:17.918Z,76.00
2023-01-12T07:09:18.118Z,80.00
2023-01-12T07:10:18.258Z,88.00
2023-01-12T07:11:18.477Z,100.00
2023-01-12T07:12:18.629Z,108.00
2023-01-12T07:13:18.776Z,120.00
2023-01-12T07:14:18.987Z,132.00
2023-01-12T07:15:19.150Z,148.00
2023-01-12T07:16:19.408Z,156.00
2023-01-12T07:17:19.460Z,168.00
2023-01-12T07:18:19.611Z,176.00
2023-01-12T07:19:19.819Z,184.00
2023-01-12T07:20:19.965Z,196.00
2023-01-12T07:21:20.128Z,200.00
2023-01-12T07:22:20.277Z,212.00
2023-01-12T07:23:20.482Z,228.00
2023-01-12T07:24:20.640Z,244.00
2023-01-12T07:25:20.817Z,260.00
2023-01-12T07:26:21.008Z,284.00
2023-01-12T07:27:21.209Z,312.00
2023-01-12T07:28:21.357Z,336.00
2023-01-12T07:29:21.550Z,360.00
2023-01-12T07:30:21.696Z,380.00
2023-01-12T07:31:21.924Z,400.00
2023-01-12T07:32:22.047Z,416.00
2023-01-12T07:33:22.207Z,432.00
2023-01-12T07:34:22.389Z,444.00
2023-01-12T07:35:22.528Z,448.00
2023-01-12T07:36:22.696Z,480.00
2023-01-12T07:37:22.859Z,520.00
2023-01-12T07:38:23.034Z,532.00
2023-01-12T07:39:23.226Z,524.00
2023-01-12T07:40:23.387Z,520.00
2023-01-12T07:41:23.545Z,532.00
2023-01-12T07:42:23.745Z,556.00
2023-01-12T07:43:23.876Z,600.00
2023-01-12T07:44:24.038Z,652.00
2023-01-12T07:45:24.274Z,700.00
2023-01-12T07:46:24.451Z,720.00
2023-01-12T07:47:24.597Z,736.00
2023-01-12T07:48:24.777Z,736.00
2023-01-12T07:49:24.986Z,728.00
2023-01-12T07:50:25.149Z,732.00
2023-01-12T07:51:25.358Z,752.00
2023-01-12T07:52:25.505Z,824.00
2023-01-12T07:53:25.724Z,900.00
2023-01-12T07:54:25.856Z,952.00
2023-01-12T07:55:26.062Z,988.00
2023-01-12T07:56:26.244Z,1016.00
2023-01-12T07:57:26.406Z,1032.00
2023-01-12T07:58:26.588Z,992.00
2023-01-12T07:59:26.735Z,948.00
2023-01-12T08:00:26.897Z,920.00
2023-01-12T08:01:27.220Z,864.00
2023-01-12T08:02:27.276Z,840.00
2023-01-12T08:03:27.463Z,832.00
2023-01-12T08:04:27.660Z,832.00
2023-01-12T08:05:27.837Z,800.00
2023-01-12T08:06:28.023Z,824.00
2023-01-12T08:07:28.165Z,848.00
2023-01-12T08:08:28.375Z,860.00
2023-01-12T08:09:28.603Z,892.00
2023-01-12T08:10:29.044Z,916.00
2023-01-12T08:11:28.843Z,956.00
2023-01-12T08:12:29.026Z,992.00
2023-01-12T08:13:29.185Z,1028.00
2023-01-12T08:14:29.396Z,1056.00
2023-01-12T08:15:29.551Z,1104.00
2023-01-12T08:16:29.734Z,1152.00
2023-01-12T08:17:29.936Z,1200.00
2023-01-12T08:18:30.024Z,1220.00
2023-01-12T08:19:30.202Z,1208.00
2023-01-12T08:20:30.363Z,1184.00
2023-01-12T08:21:30.533Z,1172.00
2023-01-12T08:22:30.703Z,1224.00
2023-01-12T08:23:30.880Z,1296.00
2023-01-12T08:24:31.050Z,1352.00
2023-01-12T08:25:31.199Z,1408.00
2023-01-12T08:26:31.381Z,1396.00
2023-01-12T08:27:31.551Z,1376.00
2023-01-12T08:28:31.734Z,1432.00
2023-01-12T08:29:31.889Z,1564.00
2023-01-12T08:30:32.036Z,1680.00
2023-01-12T08:31:32.214Z,1748.00
2023-01-12T08:32:32.413Z,1820.00
2023-01-12T08:33:32.556Z,1892.00
2023-01-12T08:34:32.763Z,2008.00
2023-01-12T08:35:32.894Z,2152.00
2023-01-12T08:36:33.076Z,2284.00
2023-01-12T08:37:33.302Z,2412.00
2023-01-12T08:38:33.463Z,2480.00
2023-01-12T08:39:33.652Z,2620.00
2023-01-12T08:40:33.807Z,2752.00
2023-01-12T08:41:33.993Z,2672.00
2023-01-12T08:42:34.178Z,2492.00
2023-01-12T08:43:34.371Z,2472.00
2023-01-12T08:44:34.516Z,2596.00
2023-01-12T08:45:34.701Z,2644.00
2023-01-12T08:46:34.964Z,2628.00
2023-01-12T08:47:35.139Z,2496.00
2023-01-12T08:48:35.241Z,2276.00
2023-01-12T08:49:35.387Z,2136.00
2023-01-12T08:50:35.568Z,2112.00
2023-01-12T08:51:35.742Z,2064.00
2023-01-12T08:52:35.913Z,2088.00
2023-01-12T08:53:36.123Z,2208.00
2023-01-12T08:54:36.263Z,2384.00
2023-01-12T08:55:36.444Z,2532.00
2023-01-12T08:56:36.625Z,2512.00
2023-01-12T08:57:36.805Z,2208.00
2023-01-12T08:58:37.004Z,1984.00
2023-01-12T08:59:37.152Z,2084.00
2023-01-12T09:00:37.352Z,2140.00
2023-01-12T09:01:37.638Z,2100.00
2023-01-12T09:02:37.732Z,1972.00
2023-01-12T09:03:37.844Z,1832.00
2023-01-12T09:04:38.057Z,1716.00
2023-01-12T09:05:38.193Z,1688.00
2023-01-12T09:06:38.381Z,1788.00
2023-01-12T09:07:38.553Z,1944.00
2023-01-12T09:08:38.742Z,2052.00
2023-01-12T09:09:38.944Z,1924.00
2023-01-12T09:10:39.104Z,1656.00
2023-01-12T09:11:39.253Z,1492.00
2023-01-12T09:12:39.429Z,1568.00
2023-01-12T09:13:39.623Z,1828.00
2023-01-12T09:14:39.780Z,2144.00
2023-01-12T09:15:39.954Z,2500.00
2023-01-12T09:16:40.179Z,2812.00
2023-01-12T09:17:40.285Z,3268.00
2023-01-12T09:18:40.514Z,3832.00
2023-01-12T09:19:40.673Z,3744.00
2023-01-12T09:20:40.813Z,3428.00
2023-01-12T09:21:40.992Z,3256.00
2023-01-12T09:22:41.183Z,3628.00
2023-01-12T09:23:41.373Z,4024.00
2023-01-12T09:24:41.581Z,4352.00
2023-01-12T09:25:41.712Z,4972.00
2023-01-12T09:26:41.929Z,4632.00
2023-01-12T09:27:42.056Z,4620.00
2023-01-12T09:28:42.240Z,4612.00
2023-01-12T09:29:42.434Z,4276.00
2023-01-12T09:30:42.585Z,3800.00
2023-01-12T09:31:42.832Z,3360.00
2023-01-12T09:32:42.942Z,3204.00
2023-01-12T09:33:43.122Z,2832.00
2023-01-12T09:34:43.355Z,2624.00
2023-01-12T09:35:43.464Z,2616.00
2023-01-12T09:36:43.656Z,2824.00
2023-01-12T09:37:43.834Z,3000.00
2023-01-12T09:38:44.025Z,3332.00
2023-01-12T09:39:44.214Z,3752.00
2023-01-12T09:40:44.364Z,3688.00
2023-01-12T09:41:44.559Z,3760.00
2023-01-12T09:42:44.755Z,3988.00
2023-01-12T09:43:44.951Z,3708.00
2023-01-12T09:44:45.092Z,3272.00
2023-01-12T09:45:45.325Z,3136.00
2023-01-12T09:46:45.447Z,2924.00
2023-01-12T09:47:45.632Z,3060.00
2023-01-12T09:48:45.807Z,3572.00
2023-01-12T09:49:45.999Z,4200.00
2023-01-12T09:50:46.202Z,4816.00
2023-01-12T09:51:46.338Z,5124.00
2023-01-12T09:52:46.526Z,5128.00
2023-01-12T09:53:47.472Z,5188.00
2023-01-12T09:54:47.011Z,5120.00
2023-01-12T09:55:47.049Z,4764.00
2023-01-12T09:56:47.224Z,4688.00
2023-01-12T09:57:47.411Z,4724.00
2023-01-12T09:58:47.593Z,4916.00
2023-01-12T09:59:47.795Z,5376.00
2023-01-12T10:00:47.947Z,5920.00
2023-01-12T10:01:48.201Z,6032.00
2023-01-12T10:02:48.440Z,5124.00
2023-01-12T10:03:48.457Z,4336.00
2023-01-12T10:04:48.704Z,3936.00
2023-01-12T10:05:48.864Z,3688.00
2023-01-12T10:06:48.994Z,3772.00
2023-01-12T10:07:49.204Z,4112.00
2023-01-12T10:08:49.351Z,4448.00
2023-01-12T10:09:49.545Z,4512.00
2023-01-12T10:10:49.781Z,4464.00
2023-01-12T10:11:49.860Z,4916.00
2023-01-12T10:12:50.045Z,5120.00
2023-01-12T10:13:50.233Z,4968.00
2023-01-12T10:14:50.456Z,4876.00
2023-01-12T10:15:50.635Z,4944.00
2023-01-12T10:16:50.752Z,5024.00
2023-01-12T10:17:52.209Z,5112.00
2023-01-12T10:18:52.763Z,4912.00
2023-01-12T10:19:51.285Z,4288.00
2023-01-12T10:20:51.488Z,4128.00
2023-01-12T10:21:51.820Z,4184.00
2023-01-12T10:22:51.843Z,3836.00
2023-01-12T10:23:52.007Z,3668.00
2023-01-12T10:24:52.881Z,3748.00
2023-01-12T10:25:52.381Z,3472.00
2023-01-12T10:26:52.563Z,2824.00
2023-01-12T10:27:52.745Z,2644.00
2023-01-12T10:28:52.933Z,2436.00
2023-01-12T10:29:53.104Z,2004.00
2023-01-12T10:30:56.097Z,1952.00
2023-01-12T10:31:53.494Z,1808.00
2023-01-12T10:32:53.578Z,2056.00
2023-01-12T10:33:53.756Z,1976.00
2023-01-12T10:34:53.960Z,1680.00
2023-01-12T10:35:54.121Z,2052.00
2023-01-12T10:36:55.763Z,2264.00
2023-01-12T10:37:54.450Z,2448.00
2023-01-12T10:38:54.630Z,2420.00
2023-01-12T10:39:54.847Z,2228.00
2023-01-12T10:40:54.979Z,3140.00
2023-01-12T10:41:55.183Z,3860.00
2023-01-12T10:42:55.763Z,3676.00
2023-01-12T10:43:55.537Z,3748.00
2023-01-12T10:44:55.757Z,3884.00
2023-01-12T10:45:56.545Z,3712.00
2023-01-12T10:46:56.045Z,3180.00
2023-01-12T10:47:56.237Z,2664.00
2023-01-12T10:48:56.563Z,2356.00
2023-01-12T10:49:56.603Z,2212.00
2023-01-12T10:50:56.784Z,2232.00
2023-01-12T10:51:56.975Z,2392.00
2023-01-12T10:52:57.165Z,2420.00
2023-01-12T10:53:57.351Z,2268.00
2023-01-12T10:54:58.980Z,2228.00
2023-01-12T10:55:57.714Z,2236.00
2023-01-12T10:56:57.900Z,2240.00
2023-01-12T10:57:58.081Z,2484.00
2023-01-12T10:58:58.272Z,2744.00
2023-01-12T10:59:58.473Z,3132.00
2023-01-12T11:00:58.744Z,3396.00
2023-01-12T11:01:58.902Z,3380.00
2023-01-12T11:02:59.078Z,3044.00
2023-01-12T11:03:59.132Z,3592.00
2023-01-12T11:04:59.323Z,3300.00
2023-01-12T11:05:59.465Z,2812.00
2023-01-12T11:06:59.656Z,2680.00
2023-01-12T11:07:59.856Z,2500.00
2023-01-12T11:09:00.005Z,2528.00
2023-01-12T11:10:00.216Z,2488.00
2023-01-12T11:11:00.357Z,2288.00
2023-01-12T11:12:00.562Z,2248.00
2023-01-12T11:13:00.727Z,2108.00
2023-01-12T11:14:00.888Z,2104.00
2023-01-12T11:15:01.069Z,2396.00
2023-01-12T11:16:01.235Z,2672.00
2023-01-12T11:17:01.429Z,2648.00
2023-01-12T11:18:01.725Z,2560.00
2023-01-12T11:19:01.792Z,2408.00
2023-01-12T11:20:01.977Z,2192.00
2023-01-12T11:21:02.115Z,1984.00
2023-01-12T11:22:02.281Z,1876.00
2023-01-12T11:23:02.433Z,1396.00
2023-01-12T11:24:02.594Z,1352.00
2023-01-12T11:25:02.785Z,1320.00
2023-01-12T11:26:03.041Z,1284.00
2023-01-12T11:27:04.247Z,1336.00
2023-01-12T11:28:03.276Z,1420.00
2023-01-12T11:29:03.445Z,1572.00
2023-01-12T11:30:03.624Z,1620.00
2023-01-12T11:31:03.869Z,1888.00
2023-01-12T11:32:03.974Z,2264.00
2023-01-12T11:33:04.162Z,2544.00
2023-01-12T11:34:04.346Z,2772.00
2023-01-12T11:35:04.909Z,2592.00
2023-01-12T11:36:04.747Z,2648.00
2023-01-12T11:37:04.872Z,2640.00
2023-01-12T11:38:05.064Z,2688.00
2023-01-12T11:39:05.205Z,2820.00
2023-01-12T11:40:05.394Z,2976.00
2023-01-12T11:41:05.553Z,2804.00
2023-01-12T11:42:05.743Z,3180.00
2023-01-12T11:43:05.945Z,3348.00
2023-01-12T11:44:06.115Z,3292.00
2023-01-12T11:45:06.253Z,3172.00
2023-01-12T11:46:06.475Z,3904.00
2023-01-12T11:47:06.612Z,3984.00
2023-01-12T11:48:06.806Z,4008.00
2023-01-12T11:49:06.985Z,3384.00
2023-01-12T11:50:07.173Z,4168.00
2023-01-12T11:51:07.333Z,4752.00
2023-01-12T11:52:07.513Z,4640.00
2023-01-12T11:53:07.721Z,4784.00
2023-01-12T11:54:07.854Z,4596.00
2023-01-12T11:55:08.047Z,5036.00
2023-01-12T11:56:08.224Z,3932.00
2023-01-12T11:57:08.457Z,3832.00
2023-01-12T11:58:08.624Z,3104.00
2023-01-12T11:59:08.773Z,3096.00
2023-01-12T12:00:08.953Z,3036.00
2023-01-12T12:01:09.169Z,2700.00
2023-01-12T12:02:09.341Z,2532.00
2023-01-12T12:03:09.499Z,2588.00
2023-01-12T12:04:09.643Z,2548.00
2023-01-12T12:05:09.849Z,2704.00
2023-01-12T12:06:10.024Z,2448.00
2023-01-12T12:07:10.205Z,2512.00
2023-01-12T12:08:10.407Z,2352.00
2023-01-12T12:09:10.553Z,2124.00
2023-01-12T12:10:10.736Z,1648.00
2023-01-12T12:11:10.911Z,1396.00
2023-01-12T12:12:11.096Z,1724.00
2023-01-12T12:13:11.338Z,1808.00
2023-01-12T12:14:11.445Z,1856.00
2023-01-12T12:15:11.618Z,2016.00
2023-01-12T12:16:11.769Z,2448.00
2023-01-12T12:17:11.952Z,2504.00
2023-01-12T12:18:12.136Z,2692.00
2023-01-12T12:19:12.326Z,2680.00
2023-01-12T12:20:12.559Z,2388.00
2023-01-12T12:21:12.669Z,3116.00
2023-01-12T12:22:12.874Z,3488.00
2023-01-12T12:23:13.020Z,2512.00
2023-01-12T12:24:13.203Z,1880.00
2023-01-12T12:25:13.372Z,2012.00
2023-01-12T12:26:13.582Z,2472.00
2023-01-12T12:27:13.729Z,2552.00
2023-01-12T12:28:13.925Z,2796.00
2023-01-12T12:29:14.094Z,2508.00
2023-01-12T12:30:14.364Z,2324.00
2023-01-12T12:31:14.492Z,1864.00
2023-01-12T12:32:14.618Z,1792.00
2023-01-12T12:33:14.832Z,1768.00
2023-01-12T12:34:14.975Z,1704.00
2023-01-12T12:35:15.155Z,1620.00
2023-01-12T12:36:15.344Z,1680.00
2023-01-12T12:37:15.524Z,1912.00
2023-01-12T12:38:15.754Z,2024.00
2023-01-12T12:39:15.884Z,2416.00
2023-01-12T12:40:16.084Z,2440.00
2023-01-12T12:41:16.255Z,2044.00
2023-01-12T12:42:16.453Z,1908.00
2023-01-12T12:43:16.617Z,1796.00
2023-01-12T12:44:16.806Z,2108.00
2023-01-12T12:45:17.024Z,2376.00
2023-01-12T12:46:17.259Z,2348.00
2023-01-12T12:47:17.304Z,2416.00
2023-01-12T12:48:17.502Z,2452.00